Time;durP1;ratioP1;P1;durP2;ratioP2;P2;SDS_P1;SDS_P2;PMS_P1;PMS_P2;Temp;Humidity;BMP_temperature;BMP_pressure;BME280_temperature;BME280_humidity;BME280_pressure;Samples;Min_cycle;Max_cycle;Signal;HPM_P1;HPM_P2
2022/03/13 00:00:19;;;;;;;22.27;14.50;;;;;;;;;;5055503;28;20044;-64
2022/03/13 00:02:45;;;;;;;18.90;13.90;;;;;;;;;;5054471;28;20044;-64
2022/03/13 00:05:14;;;;;;;22.60;14.45;;;;;;;;;;5055836;28;20060;-64
2022/03/13 00:07:41;;;;;;;19.48;14.40;;;;;;;;;;5054674;28;20045;-64
2022/03/13 00:10:07;;;;;;;21.05;14.02;;;;;;;;;;5055550;28;20064;-64
2022/03/13 00:12:34;;;;;;;18.92;14.18;;;;;;;;;;5054247;28;20048;-64
2022/03/13 00:15:02;;;;;;;19.20;13.68;;;;;;;;;;5054425;28;20057;-64
2022/03/13 00:17:29;;;;;;;23.15;14.52;;;;;;;;;;5054409;28;20076;-64
2022/03/13 00:20:02;;;;;;;18.40;13.45;;;;;;;;;;5054066;28;20553;-64
2022/03/13 00:22:30;;;;;;;19.92;14.02;;;;;;;;;;5054088;28;20049;-64
2022/03/13 00:24:56;;;;;;;19.88;13.65;;;;;;;;;;5037349;28;20098;-64
2022/03/13 00:27:22;;;;;;;20.45;13.65;;;;;;;;;;5055318;28;20045;-64
2022/03/13 00:29:49;;;;;;;19.85;13.73;;;;;;;;;;5055210;28;20041;-64
2022/03/13 00:32:15;;;;;;;18.88;13.18;;;;;;;;;;5055030;28;20111;-64
2022/03/13 00:34:41;;;;;;;21.08;13.57;;;;;;;;;;5053876;28;20052;-64
2022/03/13 00:37:08;;;;;;;20.05;12.65;;;;;;;;;;5055017;28;20036;-64
2022/03/13 00:39:34;;;;;;;20.52;13.48;;;;;;;;;;5056578;28;20101;-64
2022/03/13 00:42:01;;;;;;;21.13;12.98;;;;;;;;;;5057117;28;20052;-64
2022/03/13 00:44:27;;;;;;;18.05;13.05;;;;;;;;;;5057055;28;20115;-64
2022/03/13 00:46:53;;;;;;;20.88;13.32;;;;;;;;;;5056908;28;20036;-64
2022/03/13 00:49:20;;;;;;;18.20;13.60;;;;;;;;;;5040889;28;20113;-64
2022/03/13 00:51:46;;;;;;;19.70;13.45;;;;;;;;;;5074788;28;20040;-64
2022/03/13 00:54:13;;;;;;;20.85;13.00;;;;;;;;;;5056705;28;20040;-64
2022/03/13 00:56:39;;;;;;;21.50;13.35;;;;;;;;;;5039327;28;20076;-64
2022/03/13 00:59:05;;;;;;;20.98;13.43;;;;;;;;;;5056688;28;20459;-64
2022/03/13 01:01:32;;;;;;;18.80;12.32;;;;;;;;;;5074470;28;20393;-64
2022/03/13 01:03:58;;;;;;;17.45;12.40;;;;;;;;;;5074812;28;20150;-64
2022/03/13 01:06:24;;;;;;;19.25;13.05;;;;;;;;;;5056224;28;20047;-64
2022/03/13 01:08:51;;;;;;;16.35;11.80;;;;;;;;;;5074625;28;20036;-64
2022/03/13 01:11:18;;;;;;;19.90;12.93;;;;;;;;;;5074236;28;20121;-64
2022/03/13 01:13:44;;;;;;;18.00;13.05;;;;;;;;;;5074455;28;20390;-64
2022/03/13 01:16:15;;;;;;;17.38;12.75;;;;;;;;;;5074299;28;20119;-64
2022/03/13 01:18:46;;;;;;;19.05;12.70;;;;;;;;;;5040158;28;20105;-64
2022/03/13 01:21:12;;;;;;;18.75;12.75;;;;;;;;;;5056251;28;20049;-64
2022/03/13 01:23:39;;;;;;;17.67;12.75;;;;;;;;;;5056173;28;20040;-64
2022/03/13 01:26:37;;;;;;;18.40;12.30;;;;;;;;;;5056173;28;20040;-64
2022/03/13 01:29:07;;;;;;;17.17;12.57;;;;;;;;;;5055712;28;20048;-64
2022/03/13 01:31:35;;;;;;;20.88;13.60;;;;;;;;;;5055821;28;20048;-64
2022/03/13 01:34:01;;;;;;;16.95;12.38;;;;;;;;;;5056093;28;20044;-64
2022/03/13 01:36:28;;;;;;;20.65;13.50;;;;;;;;;;5073877;28;20489;-64
2022/03/13 01:38:55;;;;;;;18.65;13.50;;;;;;;;;;5056242;28;20366;-64
2022/03/13 01:41:23;;;;;;;18.95;13.75;;;;;;;;;;5052143;28;20393;-64
2022/03/13 01:43:49;;;;;;;18.48;13.13;;;;;;;;;;5053866;28;20047;-64
2022/03/13 01:46:16;;;;;;;24.35;13.88;;;;;;;;;;5052702;28;20036;-64
2022/03/13 01:48:59;;;;;;;19.50;13.38;;;;;;;;;;5052463;28;20047;-64
2022/03/13 01:51:26;;;;;;;19.23;13.68;;;;;;;;;;5052616;28;20390;-64
2022/03/13 01:53:53;;;;;;;17.85;12.63;;;;;;;;;;5052452;28;20045;-64
2022/03/13 01:56:20;;;;;;;20.83;12.88;;;;;;;;;;5035965;28;20095;-64
2022/03/13 01:58:48;;;;;;;20.40;13.88;;;;;;;;;;5052344;28;20053;-64
2022/03/13 02:01:16;;;;;;;18.27;12.32;;;;;;;;;;5052014;28;20060;-64
2022/03/13 02:03:42;;;;;;;18.30;13.30;;;;;;;;;;5052307;28;20064;-64
2022/03/13 02:06:08;;;;;;;23.50;14.65;;;;;;;;;;5051998;28;20544;-64
2022/03/13 02:08:38;;;;;;;18.90;13.95;;;;;;;;;;5051766;28;20539;-64
2022/03/13 02:11:05;;;;;;;19.38;12.70;;;;;;;;;;5052042;28;20045;-64
2022/03/13 02:13:34;;;;;;;19.23;13.27;;;;;;;;;;5052009;28;20086;-64
2022/03/13 02:16:01;;;;;;;20.48;13.15;;;;;;;;;;5052095;28;20094;-64
2022/03/13 02:18:27;;;;;;;24.52;14.25;;;;;;;;;;5051919;28;20078;-64
2022/03/13 02:20:53;;;;;;;20.63;14.07;;;;;;;;;;5051837;28;20502;-64
2022/03/13 02:23:21;;;;;;;22.05;14.35;;;;;;;;;;5052080;28;20087;-64
2022/03/13 02:25:52;;;;;;;21.35;14.32;;;;;;;;;;5051973;28;20041;-64
2022/03/13 02:28:21;;;;;;;19.63;13.48;;;;;;;;;;5051826;28;20052;-64
2022/03/13 02:30:48;;;;;;;17.90;13.35;;;;;;;;;;5051504;28;20045;-64
2022/03/13 02:33:16;;;;;;;19.58;13.95;;;;;;;;;;5035077;28;20045;-64
2022/03/13 02:35:42;;;;;;;21.17;13.73;;;;;;;;;;5052814;28;20037;-64
2022/03/13 02:38:08;;;;;;;19.77;13.95;;;;;;;;;;5052810;28;20386;-64
2022/03/13 02:40:35;;;;;;;18.83;13.55;;;;;;;;;;5054553;28;20364;-64
2022/03/13 02:43:01;;;;;;;19.80;13.63;;;;;;;;;;5038026;28;20048;-64
2022/03/13 02:45:27;;;;;;;21.83;13.65;;;;;;;;;;5072509;28;20044;-64
2022/03/13 02:47:53;;;;;;;19.98;12.95;;;;;;;;;;5054751;28;20048;-64
2022/03/13 02:50:20;;;;;;;20.48;13.93;;;;;;;;;;5072784;28;20040;-64
2022/03/13 02:52:46;;;;;;;20.25;13.68;;;;;;;;;;5054756;28;20473;-64
2022/03/13 02:55:12;;;;;;;19.00;13.38;;;;;;;;;;5072884;28;20437;-64
2022/03/13 02:57:39;;;;;;;20.40;14.68;;;;;;;;;;5054873;28;20040;-64
2022/03/13 03:00:06;;;;;;;21.08;14.48;;;;;;;;;;5054552;28;20091;-64
2022/03/13 03:02:32;;;;;;;20.23;14.27;;;;;;;;;;5072392;28;20045;-64
2022/03/13 03:04:58;;;;;;;19.15;13.23;;;;;;;;;;5037694;28;20127;-64
2022/03/13 03:07:24;;;;;;;21.10;14.48;;;;;;;;;;5072794;28;20036;-64
2022/03/13 03:09:50;;;;;;;19.00;13.45;;;;;;;;;;5072187;28;20059;-64
2022/03/13 03:12:16;;;;;;;20.85;13.85;;;;;;;;;;5038019;28;20481;-64
2022/03/13 03:14:42;;;;;;;24.50;14.02;;;;;;;;;;5072295;28;20060;-64
2022/03/13 03:17:08;;;;;;;19.55;13.40;;;;;;;;;;5072392;28;20037;-64
2022/03/13 03:19:36;;;;;;;19.67;13.02;;;;;;;;;;5072358;28;20042;-64
2022/03/13 03:22:02;;;;;;;19.42;13.95;;;;;;;;;;5058066;28;20041;-64
2022/03/13 03:24:28;;;;;;;18.35;13.63;;;;;;;;;;5058831;28;20485;-64
2022/03/13 03:26:54;;;;;;;18.80;13.02;;;;;;;;;;5076305;28;20036;-64
2022/03/13 03:29:20;;;;;;;22.92;13.73;;;;;;;;;;5058780;28;20036;-64
2022/03/13 03:31:48;;;;;;;18.90;13.70;;;;;;;;;;5076312;28;20447;-64
2022/03/13 03:34:15;;;;;;;18.70;13.50;;;;;;;;;;5058416;28;20128;-64
2022/03/13 03:36:42;;;;;;;20.00;13.48;;;;;;;;;;5058079;28;20048;-64
2022/03/13 03:39:09;;;;;;;22.23;14.23;;;;;;;;;;5058390;28;20472;-64
2022/03/13 03:41:35;;;;;;;22.80;14.55;;;;;;;;;;5057883;28;20158;-64
2022/03/13 03:44:01;;;;;;;21.08;14.82;;;;;;;;;;5057803;28;20051;-64
2022/03/13 03:46:27;;;;;;;19.02;13.45;;;;;;;;;;5058082;28;20044;-64
2022/03/13 03:48:53;;;;;;;20.67;14.63;;;;;;;;;;5058063;28;20037;-64
2022/03/13 03:51:19;;;;;;;23.30;15.10;;;;;;;;;;5075809;28;20052;-64
2022/03/13 03:53:46;;;;;;;18.52;14.02;;;;;;;;;;5075861;28;20094;-64
2022/03/13 03:56:12;;;;;;;21.25;14.93;;;;;;;;;;5057736;28;20059;-64
2022/03/13 03:58:38;;;;;;;21.35;13.52;;;;;;;;;;5057657;28;20043;-64
2022/03/13 04:01:04;;;;;;;23.08;13.88;;;;;;;;;;5057643;28;20044;-64
2022/03/13 04:03:30;;;;;;;23.60;14.63;;;;;;;;;;5057730;28;20166;-64
2022/03/13 04:05:56;;;;;;;23.30;14.50;;;;;;;;;;5075531;28;20036;-64
2022/03/13 04:08:22;;;;;;;20.02;13.30;;;;;;;;;;5075865;28;20036;-64
2022/03/13 04:10:48;;;;;;;19.90;14.25;;;;;;;;;;5040781;28;20488;-64
2022/03/13 04:13:14;;;;;;;22.58;14.52;;;;;;;;;;5057629;28;20052;-64
2022/03/13 04:15:40;;;;;;;20.00;13.88;;;;;;;;;;5057773;28;20122;-64
2022/03/13 04:18:08;;;;;;;21.10;13.85;;;;;;;;;;5057609;28;20052;-64
2022/03/13 04:20:34;;;;;;;21.02;14.48;;;;;;;;;;5057697;28;20102;-64
2022/03/13 04:23:00;;;;;;;19.85;13.73;;;;;;;;;;5075391;28;20389;-64
2022/03/13 04:25:26;;;;;;;19.60;14.18;;;;;;;;;;5041008;28;20207;-64
2022/03/13 04:27:53;;;;;;;21.98;14.15;;;;;;;;;;5075517;28;20044;-64
2022/03/13 04:30:21;;;;;;;20.00;14.27;;;;;;;;;;5057273;28;20116;-64
2022/03/13 04:32:47;;;;;;;19.23;13.35;;;;;;;;;;5057506;28;20083;-64
2022/03/13 04:35:13;;;;;;;20.27;13.38;;;;;;;;;;5057144;28;20319;-64
2022/03/13 04:37:39;;;;;;;22.55;13.35;;;;;;;;;;5056965;28;20071;-64
2022/03/13 04:40:05;;;;;;;20.48;13.85;;;;;;;;;;5056604;28;20125;-64
2022/03/13 04:42:31;;;;;;;20.70;13.40;;;;;;;;;;5074918;28;20053;-64
2022/03/13 04:44:57;;;;;;;22.38;14.55;;;;;;;;;;5075196;28;20094;-64
2022/03/13 04:47:30;;;;;;;21.13;13.88;;;;;;;;;;5057192;28;20547;-64
2022/03/13 04:49:57;;;;;;;20.92;13.23;;;;;;;;;;5074889;28;20044;-64
2022/03/13 04:52:23;;;;;;;18.70;13.68;;;;;;;;;;5074749;28;20044;-64
2022/03/13 04:54:49;;;;;;;21.77;13.95;;;;;;;;;;5056645;28;20051;-64
2022/03/13 04:57:15;;;;;;;21.88;14.13;;;;;;;;;;5074800;28;20558;-64
2022/03/13 04:59:41;;;;;;;21.13;14.60;;;;;;;;;;5057093;28;20430;-64
2022/03/13 05:02:07;;;;;;;20.02;13.18;;;;;;;;;;5074489;28;20389;-64
2022/03/13 05:04:33;;;;;;;19.10;13.57;;;;;;;;;;5056593;28;20499;-64
2022/03/13 05:06:59;;;;;;;17.85;13.25;;;;;;;;;;5074424;28;20036;-64
2022/03/13 05:09:25;;;;;;;17.70;13.75;;;;;;;;;;5074461;28;20044;-64
2022/03/13 05:11:52;;;;;;;21.10;13.77;;;;;;;;;;5056472;28;20048;-64
2022/03/13 05:14:18;;;;;;;21.45;13.82;;;;;;;;;;5074425;28;20068;-64
2022/03/13 05:16:45;;;;;;;20.30;13.55;;;;;;;;;;5056270;28;20036;-64
2022/03/13 05:19:11;;;;;;;20.55;13.55;;;;;;;;;;5074338;28;20123;-64
2022/03/13 05:21:37;;;;;;;19.45;13.38;;;;;;;;;;5074374;28;20439;-64
2022/03/13 05:24:03;;;;;;;19.63;13.43;;;;;;;;;;5074454;28;20048;-64
2022/03/13 05:26:29;;;;;;;18.42;12.25;;;;;;;;;;5056295;28;20068;-64
2022/03/13 05:28:55;;;;;;;18.20;13.02;;;;;;;;;;5056714;28;20049;-64
2022/03/13 05:31:21;;;;;;;21.05;13.05;;;;;;;;;;5056150;28;20056;-64
2022/03/13 05:33:47;;;;;;;18.90;13.57;;;;;;;;;;5039508;28;20044;-64
2022/03/13 05:36:13;;;;;;;17.17;12.55;;;;;;;;;;5073832;28;20040;-64
2022/03/13 05:38:40;;;;;;;17.75;12.73;;;;;;;;;;5055993;28;20056;-64
2022/03/13 05:41:06;;;;;;;21.35;13.35;;;;;;;;;;5052161;28;20052;-64
2022/03/13 05:43:33;;;;;;;19.50;14.10;;;;;;;;;;5053348;28;20110;-64
2022/03/13 05:45:59;;;;;;;18.98;12.82;;;;;;;;;;5052783;28;20540;-64
2022/03/13 05:48:26;;;;;;;20.33;13.27;;;;;;;;;;5053823;28;20493;-64
2022/03/13 05:50:52;;;;;;;20.63;13.40;;;;;;;;;;5052444;28;20389;-64
2022/03/13 05:53:18;;;;;;;17.73;13.23;;;;;;;;;;5053661;28;20044;-64
2022/03/13 05:55:44;;;;;;;20.60;13.43;;;;;;;;;;5053879;28;20045;-64
2022/03/13 05:58:13;;;;;;;19.05;13.68;;;;;;;;;;5052330;28;20103;-64
2022/03/13 06:00:39;;;;;;;18.77;13.07;;;;;;;;;;5052191;28;20209;-64
2022/03/13 06:03:06;;;;;;;18.80;13.20;;;;;;;;;;5052265;28;20049;-64
2022/03/13 06:05:35;;;;;;;21.35;12.80;;;;;;;;;;5053603;28;20160;-64
2022/03/13 06:08:01;;;;;;;23.58;13.70;;;;;;;;;;5052357;28;20485;-64
2022/03/13 06:10:27;;;;;;;17.73;12.82;;;;;;;;;;5052256;28;20055;-64
2022/03/13 06:12:54;;;;;;;18.42;13.27;;;;;;;;;;5052048;28;20048;-64
2022/03/13 06:15:20;;;;;;;18.63;13.00;;;;;;;;;;5051928;28;20477;-64
2022/03/13 06:17:47;;;;;;;20.13;13.63;;;;;;;;;;5051985;28;20045;-64
2022/03/13 06:20:14;;;;;;;19.45;13.43;;;;;;;;;;5051852;28;20040;-64
2022/03/13 06:22:42;;;;;;;18.90;13.68;;;;;;;;;;5051829;28;20088;-64
2022/03/13 06:25:10;;;;;;;17.42;12.80;;;;;;;;;;5053534;28;20435;-64
2022/03/13 06:27:36;;;;;;;20.38;12.68;;;;;;;;;;5053217;28;20041;-64
2022/03/13 06:30:11;;;;;;;18.95;13.35;;;;;;;;;;5053034;28;20400;-64
2022/03/13 06:32:37;;;;;;;21.70;13.25;;;;;;;;;;5051976;28;20190;-64
2022/03/13 06:35:04;;;;;;;19.45;13.35;;;;;;;;;;5051723;28;20528;-64
2022/03/13 06:37:30;;;;;;;20.48;14.73;;;;;;;;;;5035331;28;20132;-64
2022/03/13 06:39:56;;;;;;;23.73;14.38;;;;;;;;;;5059559;28;20161;-64
2022/03/13 06:42:22;;;;;;;19.50;13.27;;;;;;;;;;5054534;28;20113;-64
2022/03/13 06:44:48;;;;;;;17.95;13.05;;;;;;;;;;5072649;28;20091;-64
2022/03/13 06:47:14;;;;;;;20.33;13.98;;;;;;;;;;5054769;28;20040;-64
2022/03/13 06:49:41;;;;;;;19.73;12.20;;;;;;;;;;5054612;28;20044;-64
2022/03/13 06:52:07;;;;;;;21.83;13.50;;;;;;;;;;5054450;28;20090;-64
2022/03/13 06:54:33;;;;;;;21.33;14.27;;;;;;;;;;5054079;28;20052;-64
2022/03/13 06:56:59;;;;;;;18.75;12.77;;;;;;;;;;5072304;28;20070;-64
2022/03/13 06:59:25;;;;;;;18.63;12.98;;;;;;;;;;5054438;28;20488;-64
2022/03/13 07:01:51;;;;;;;21.33;12.70;;;;;;;;;;5054391;28;20365;-64
2022/03/13 07:04:18;;;;;;;18.33;12.40;;;;;;;;;;5054619;28;20374;-63
2022/03/13 07:06:44;;;;;;;17.55;13.13;;;;;;;;;;5054449;28;20036;-64
2022/03/13 07:09:10;;;;;;;19.23;13.25;;;;;;;;;;5054476;28;20063;-64
2022/03/13 07:11:37;;;;;;;18.95;14.25;;;;;;;;;;5072254;28;20112;-64
2022/03/13 07:14:07;;;;;;;20.02;12.73;;;;;;;;;;5054097;28;20154;-64
2022/03/13 07:16:33;;;;;;;19.42;12.68;;;;;;;;;;5053943;28;20500;-64
2022/03/13 07:18:59;;;;;;;17.90;13.10;;;;;;;;;;5072351;28;20464;-64
2022/03/13 07:21:25;;;;;;;19.67;12.45;;;;;;;;;;5072356;28;20040;-64
2022/03/13 07:23:51;;;;;;;18.45;12.93;;;;;;;;;;5072636;28;20036;-64
2022/03/13 07:26:17;;;;;;;18.65;12.57;;;;;;;;;;5054309;28;20094;-64
2022/03/13 07:28:43;;;;;;;18.02;12.80;;;;;;;;;;5054313;28;20102;-64
2022/03/13 07:31:09;;;;;;;18.75;12.82;;;;;;;;;;5054375;28;20051;-64
2022/03/13 07:33:36;;;;;;;21.38;13.20;;;;;;;;;;5072310;28;20051;-64
2022/03/13 07:36:02;;;;;;;17.90;12.15;;;;;;;;;;5054197;28;20048;-64
2022/03/13 07:38:28;;;;;;;20.33;12.52;;;;;;;;;;5054247;28;20045;-64
2022/03/13 07:40:54;;;;;;;16.17;12.13;;;;;;;;;;5071713;28;20049;-64
2022/03/13 07:43:20;;;;;;;20.77;13.85;;;;;;;;;;5054171;28;20568;-64
2022/03/13 07:45:47;;;;;;;20.90;13.02;;;;;;;;;;5053855;28;20072;-64
2022/03/13 07:48:13;;;;;;;18.23;12.07;;;;;;;;;;5072247;28;20044;-64
2022/03/13 07:50:39;;;;;;;18.75;12.90;;;;;;;;;;5054424;28;20451;-64
2022/03/13 07:53:05;;;;;;;19.15;13.63;;;;;;;;;;5053902;28;20047;-64
2022/03/13 07:55:31;;;;;;;19.92;12.98;;;;;;;;;;5053874;28;20485;-64
2022/03/13 07:57:57;;;;;;;17.73;12.98;;;;;;;;;;5054256;28;20489;-64
2022/03/13 08:00:24;;;;;;;18.05;12.82;;;;;;;;;;5053977;28;20385;-64
2022/03/13 08:02:53;;;;;;;16.67;11.40;;;;;;;;;;5072107;28;20476;-64
2022/03/13 08:05:21;;;;;;;17.00;12.02;;;;;;;;;;5071955;28;20182;-64
2022/03/13 08:07:49;;;;;;;18.88;12.85;;;;;;;;;;5040594;28;20051;-64
2022/03/13 08:10:23;;;;;;;18.17;12.68;;;;;;;;;;5057128;28;20041;-64
2022/03/13 08:12:50;;;;;;;18.25;12.32;;;;;;;;;;5075568;28;20044;-64
2022/03/13 08:15:16;;;;;;;17.48;12.48;;;;;;;;;;5058072;28;20384;-64
2022/03/13 08:17:42;;;;;;;18.92;12.70;;;;;;;;;;5057580;28;20492;-64
2022/03/13 08:20:10;;;;;;;18.15;11.77;;;;;;;;;;5057498;28;20056;-64
2022/03/13 08:22:37;;;;;;;15.20;11.57;;;;;;;;;;5057751;28;20396;-64
2022/03/13 08:25:03;;;;;;;16.92;12.05;;;;;;;;;;5057435;28;20497;-64
2022/03/13 08:27:29;;;;;;;18.23;12.65;;;;;;;;;;5057430;28;20044;-64
2022/03/13 08:29:55;;;;;;;16.63;12.23;;;;;;;;;;5057372;28;20040;-64
2022/03/13 08:32:21;;;;;;;18.48;12.07;;;;;;;;;;5075362;28;20040;-64
2022/03/13 08:34:48;;;;;;;19.30;12.52;;;;;;;;;;5057202;28;20049;-64
2022/03/13 08:37:15;;;;;;;17.17;12.50;;;;;;;;;;5057488;28;20190;-64
2022/03/13 08:39:42;;;;;;;17.60;12.30;;;;;;;;;;5074566;28;20109;-64
2022/03/13 08:42:08;;;;;;;20.55;11.77;;;;;;;;;;5056652;28;20095;-64
2022/03/13 08:44:34;;;;;;;19.60;12.10;;;;;;;;;;5057274;28;20421;-64
2022/03/13 08:47:00;;;;;;;16.63;11.05;;;;;;;;;;5057143;28;20056;-64
2022/03/13 08:49:27;;;;;;;17.45;12.10;;;;;;;;;;5057189;28;20056;-64
2022/03/13 08:51:53;;;;;;;19.23;11.57;;;;;;;;;;5057125;28;20425;-64
2022/03/13 08:54:20;;;;;;;16.75;11.88;;;;;;;;;;5057134;28;20050;-64
2022/03/13 08:56:48;;;;;;;17.90;11.65;;;;;;;;;;5056931;28;20393;-64
2022/03/13 08:59:15;;;;;;;17.27;11.43;;;;;;;;;;5057020;28;20055;-64
2022/03/13 09:01:41;;;;;;;16.63;11.57;;;;;;;;;;5075020;28;20046;-64
2022/03/13 09:04:07;;;;;;;17.40;12.13;;;;;;;;;;5074902;28;20072;-64
2022/03/13 09:06:33;;;;;;;21.00;12.57;;;;;;;;;;5056452;28;20044;-64
2022/03/13 09:09:00;;;;;;;15.98;11.48;;;;;;;;;;5074913;28;20145;-64
2022/03/13 09:11:26;;;;;;;16.92;11.82;;;;;;;;;;5074571;28;20480;-64
2022/03/13 09:13:52;;;;;;;17.55;11.23;;;;;;;;;;5074979;28;20388;-64
2022/03/13 09:16:19;;;;;;;17.88;11.50;;;;;;;;;;5056852;28;20449;-64
2022/03/13 09:18:45;;;;;;;18.45;11.60;;;;;;;;;;5055564;28;20081;-64
2022/03/13 09:21:11;;;;;;;16.45;11.10;;;;;;;;;;5074630;28;20049;-64
2022/03/13 09:23:37;;;;;;;19.50;11.77;;;;;;;;;;5074783;28;20036;-64
2022/03/13 09:26:04;;;;;;;20.52;11.98;;;;;;;;;;5056454;28;20064;-64
2022/03/13 09:28:30;;;;;;;17.35;11.93;;;;;;;;;;5056526;28;20048;-64
2022/03/13 09:30:58;;;;;;;18.65;11.75;;;;;;;;;;5056305;28;20036;-64
2022/03/13 09:33:24;;;;;;;19.17;12.15;;;;;;;;;;5056474;28;20051;-64
2022/03/13 09:35:51;;;;;;;16.60;11.65;;;;;;;;;;5056239;28;20485;-64
2022/03/13 09:38:17;;;;;;;15.93;11.73;;;;;;;;;;5056500;28;20499;-64
2022/03/13 09:40:43;;;;;;;16.80;11.77;;;;;;;;;;5055968;28;20057;-64
2022/03/13 09:43:10;;;;;;;17.05;11.90;;;;;;;;;;5056407;28;20102;-64
2022/03/13 09:45:36;;;;;;;19.25;11.63;;;;;;;;;;5055996;28;20037;-64
2022/03/13 09:48:03;;;;;;;20.05;12.52;;;;;;;;;;5073991;28;20045;-64
2022/03/13 09:50:29;;;;;;;16.40;11.95;;;;;;;;;;5055902;28;20040;-64
2022/03/13 09:52:55;;;;;;;19.30;11.90;;;;;;;;;;5056039;28;20072;-64
2022/03/13 09:55:22;;;;;;;17.35;11.57;;;;;;;;;;5039180;28;20550;-64
2022/03/13 09:57:48;;;;;;;17.52;12.55;;;;;;;;;;5073852;28;20457;-64
2022/03/13 10:00:16;;;;;;;16.33;12.10;;;;;;;;;;5055499;28;20051;-64
2022/03/13 10:02:43;;;;;;;17.00;12.05;;;;;;;;;;5055736;28;20404;-64
2022/03/13 10:05:10;;;;;;;17.77;12.80;;;;;;;;;;5055733;28;20475;-64
2022/03/13 10:07:53;;;;;;;16.55;12.50;;;;;;;;;;5056031;28;20098;-64
2022/03/13 10:10:20;;;;;;;17.00;12.98;;;;;;;;;;5073236;28;20080;-64
2022/03/13 10:12:46;;;;;;;18.80;12.88;;;;;;;;;;5055650;28;20087;-64
2022/03/13 10:15:13;;;;;;;16.45;12.70;;;;;;;;;;5055708;28;20066;-64
2022/03/13 10:17:40;;;;;;;16.88;12.68;;;;;;;;;;5055466;28;20489;-64
2022/03/13 10:20:17;;;;;;;17.80;12.35;;;;;;;;;;5038815;28;20101;-64
2022/03/13 10:22:44;;;;;;;19.45;12.98;;;;;;;;;;5055337;28;20043;-64
2022/03/13 10:25:13;;;;;;;19.42;12.20;;;;;;;;;;5073169;28;20048;-64
2022/03/13 10:27:39;;;;;;;18.90;12.25;;;;;;;;;;5073225;28;20048;-64
2022/03/13 10:30:08;;;;;;;14.80;11.40;;;;;;;;;;5054971;28;20047;-64
2022/03/13 10:32:35;;;;;;;17.95;13.07;;;;;;;;;;5055531;28;20063;-64
2022/03/13 10:35:01;;;;;;;16.50;12.30;;;;;;;;;;5073348;28;20037;-64
2022/03/13 10:37:38;;;;;;;21.50;12.60;;;;;;;;;;5055434;28;20741;-64
2022/03/13 10:40:08;;;;;;;18.85;12.55;;;;;;;;;;5051389;28;20053;-64
2022/03/13 10:42:41;;;;;;;17.05;12.40;;;;;;;;;;5051508;28;20052;-64
2022/03/13 10:45:08;;;;;;;16.73;12.57;;;;;;;;;;5051521;28;20044;-64
2022/03/13 10:47:34;;;;;;;18.38;13.15;;;;;;;;;;5051843;28;20651;-64
2022/03/13 10:50:00;;;;;;;17.20;12.40;;;;;;;;;;5051725;28;20116;-64
2022/03/13 10:52:26;;;;;;;18.25;12.48;;;;;;;;;;5051638;28;20041;-64
2022/03/13 10:54:56;;;;;;;18.98;13.30;;;;;;;;;;5051381;28;20099;-64
2022/03/13 10:57:23;;;;;;;18.48;12.75;;;;;;;;;;5051754;28;20114;-64
2022/03/13 11:00:18;;;;;;;17.35;12.73;;;;;;;;;;5053075;28;20131;-64
2022/03/13 11:02:44;;;;;;;16.73;11.80;;;;;;;;;;5039891;28;20528;-64
2022/03/13 11:05:10;;;;;;;17.75;12.52;;;;;;;;;;5051574;28;20488;-64
2022/03/13 11:07:37;;;;;;;15.70;11.60;;;;;;;;;;5052919;28;20040;-64
2022/03/13 11:10:06;;;;;;;19.70;13.15;;;;;;;;;;5052377;28;20033;-64
2022/03/13 11:12:32;;;;;;;16.50;12.57;;;;;;;;;;5051602;28;20370;-64
2022/03/13 11:15:00;;;;;;;20.30;13.13;;;;;;;;;;5051534;28;20392;-64
2022/03/13 11:17:28;;;;;;;16.23;12.07;;;;;;;;;;5051553;28;20045;-64
2022/03/13 11:19:58;;;;;;;17.20;13.05;;;;;;;;;;5051230;28;20037;-64
2022/03/13 11:22:25;;;;;;;17.15;12.55;;;;;;;;;;5051195;28;20049;-64
2022/03/13 11:24:52;;;;;;;17.35;12.43;;;;;;;;;;5051084;28;20098;-64
2022/03/13 11:27:19;;;;;;;22.33;13.25;;;;;;;;;;5051122;28;20044;-64
2022/03/13 11:29:53;;;;;;;16.88;12.45;;;;;;;;;;5051569;28;20041;-64
2022/03/13 11:32:37;;;;;;;19.98;12.80;;;;;;;;;;5051392;28;20056;-64
2022/03/13 11:35:22;;;;;;;18.42;12.88;;;;;;;;;;5050997;28;20045;-64
2022/03/13 11:38:03;;;;;;;17.45;12.82;;;;;;;;;;5051096;28;20375;-64
2022/03/13 11:40:29;;;;;;;18.95;12.85;;;;;;;;;;5054087;28;20456;-64
2022/03/13 11:43:04;;;;;;;19.05;13.00;;;;;;;;;;5057720;28;20044;-64
2022/03/13 11:45:33;;;;;;;17.25;12.82;;;;;;;;;;5041551;28;20089;-64
2022/03/13 11:48:05;;;;;;;15.10;11.73;;;;;;;;;;5058397;28;20048;-64
2022/03/13 11:50:51;;;;;;;20.38;12.52;;;;;;;;;;5057967;28;20500;-65
2022/03/13 11:53:17;;;;;;;18.70;13.43;;;;;;;;;;5058030;28;20048;-64
2022/03/13 11:56:02;;;;;;;17.48;12.40;;;;;;;;;;5058144;28;20355;-64
2022/03/13 11:58:40;;;;;;;18.50;12.85;;;;;;;;;;5058509;28;20042;-64
2022/03/13 12:01:07;;;;;;;18.45;12.57;;;;;;;;;;5057953;28;20080;-65
2022/03/13 12:03:34;;;;;;;17.08;12.38;;;;;;;;;;5057804;28;20043;-64
2022/03/13 12:06:00;;;;;;;16.33;12.18;;;;;;;;;;5058144;28;20052;-64
2022/03/13 12:08:45;;;;;;;16.88;12.50;;;;;;;;;;5057865;28;20076;-64
2022/03/13 12:11:29;;;;;;;17.98;12.40;;;;;;;;;;5075635;28;20453;-64
2022/03/13 12:13:56;;;;;;;16.35;12.27;;;;;;;;;;5057600;28;20059;-64
2022/03/13 12:16:22;;;;;;;21.15;13.50;;;;;;;;;;5057646;28;20052;-64
2022/03/13 12:18:58;;;;;;;18.63;13.15;;;;;;;;;;5075927;28;20044;-64
2022/03/13 12:21:24;;;;;;;17.95;13.10;;;;;;;;;;5057682;28;20055;-64
2022/03/13 12:23:50;;;;;;;19.90;13.93;;;;;;;;;;5057528;28;20044;-64
2022/03/13 12:26:16;;;;;;;17.90;12.98;;;;;;;;;;5057634;28;20076;-64
2022/03/13 12:28:42;;;;;;;18.00;12.40;;;;;;;;;;5057783;28;20056;-64
2022/03/13 12:31:09;;;;;;;18.48;12.75;;;;;;;;;;5075697;28;20393;-64
2022/03/13 12:33:39;;;;;;;17.35;12.68;;;;;;;;;;5075707;28;20037;-64
2022/03/13 12:36:06;;;;;;;18.88;12.63;;;;;;;;;;5057459;28;20433;-64
2022/03/13 12:38:33;;;;;;;18.70;12.60;;;;;;;;;;5075262;28;20047;-65
2022/03/13 12:41:01;;;;;;;16.77;11.65;;;;;;;;;;5053623;28;20053;-64
2022/03/13 12:43:47;;;;;;;17.58;12.45;;;;;;;;;;5055123;28;20041;-64
2022/03/13 12:46:13;;;;;;;17.00;12.30;;;;;;;;;;5053796;28;20128;-64
2022/03/13 12:48:39;;;;;;;14.48;10.80;;;;;;;;;;5053972;28;20037;-64
2022/03/13 12:51:05;;;;;;;14.65;10.88;;;;;;;;;;5055549;28;20044;-64
2022/03/13 12:53:32;;;;;;;14.85;11.70;;;;;;;;;;5052706;28;20065;-64
2022/03/13 12:55:59;;;;;;;18.65;11.63;;;;;;;;;;5053547;28;20049;-64
2022/03/13 12:58:44;;;;;;;14.95;10.80;;;;;;;;;;5053625;28;20053;-64
2022/03/13 13:01:20;;;;;;;15.55;10.80;;;;;;;;;;5053370;28;20049;-64
2022/03/13 13:03:49;;;;;;;17.92;11.55;;;;;;;;;;5053638;28;20124;-64
2022/03/13 13:06:27;;;;;;;16.42;12.05;;;;;;;;;;5053581;28;20099;-64
2022/03/13 13:08:53;;;;;;;14.52;11.18;;;;;;;;;;5054877;28;20037;-64
2022/03/13 13:11:30;;;;;;;16.17;11.40;;;;;;;;;;5054648;28;20048;-64
2022/03/13 13:13:57;;;;;;;19.73;12.25;;;;;;;;;;5053656;28;20132;-64
2022/03/13 13:16:23;;;;;;;15.93;11.52;;;;;;;;;;5053240;28;20048;-64
2022/03/13 13:18:50;;;;;;;15.70;11.63;;;;;;;;;;5053175;28;20048;-64
2022/03/13 13:21:16;;;;;;;16.23;11.05;;;;;;;;;;5053202;28;20464;-64
2022/03/13 13:23:42;;;;;;;14.90;11.65;;;;;;;;;;5054768;28;20385;-64
2022/03/13 13:26:08;;;;;;;15.38;11.05;;;;;;;;;;5053100;28;20048;-64
2022/03/13 13:28:35;;;;;;;14.10;10.98;;;;;;;;;;5036618;28;20048;-64
2022/03/13 13:31:01;;;;;;;14.65;10.57;;;;;;;;;;5053337;28;20389;-64
2022/03/13 13:33:34;;;;;;;14.25;10.63;;;;;;;;;;5053061;28;20501;-64
2022/03/13 13:36:02;;;;;;;16.70;11.57;;;;;;;;;;5054250;28;20052;-64
2022/03/13 13:38:32;;;;;;;15.38;11.20;;;;;;;;;;5036298;28;20504;-64
2022/03/13 13:40:58;;;;;;;13.85;10.68;;;;;;;;;;5069328;28;20493;-64
2022/03/13 13:43:32;;;;;;;14.80;10.30;;;;;;;;;;5056079;28;20052;-64
2022/03/13 13:46:06;;;;;;;13.52;10.23;;;;;;;;;;5074002;28;20044;-64
2022/03/13 13:48:35;;;;;;;14.38;10.10;;;;;;;;;;5056078;28;20037;-64
2022/03/13 13:51:20;;;;;;;14.63;10.40;;;;;;;;;;5055787;28;20055;-64
2022/03/13 13:53:55;;;;;;;15.13;10.40;;;;;;;;;;5056081;28;20048;-64
2022/03/13 13:56:41;;;;;;;14.32;10.73;;;;;;;;;;5055720;28;20044;-64
2022/03/13 13:59:15;;;;;;;16.83;10.35;;;;;;;;;;5055684;28;20048;-64
2022/03/13 14:01:42;;;;;;;13.57;9.80;;;;;;;;;;5055654;28;20469;-64
2022/03/13 14:04:08;;;;;;;13.18;9.52;;;;;;;;;;5055466;28;20365;-64
2022/03/13 14:06:35;;;;;;;14.93;10.10;;;;;;;;;;5055460;28;20040;-64
2022/03/13 14:09:05;;;;;;;13.57;9.70;;;;;;;;;;5055139;28;20048;-64
2022/03/13 14:11:32;;;;;;;15.10;11.20;;;;;;;;;;5038606;28;20500;-64
2022/03/13 14:14:00;;;;;;;13.20;9.68;;;;;;;;;;5055793;28;20048;-64
2022/03/13 14:16:26;;;;;;;14.18;10.20;;;;;;;;;;5055342;28;20098;-65
2022/03/13 14:18:52;;;;;;;13.35;9.98;;;;;;;;;;5055328;28;20122;-64